Terminal Aerodrome Forecast
Issued by NWS Caribou, ME

Home | Current Version | Previous Version | Text Only | Print | Product List | Glossary On
Versions: 1 2 3 4 5 6 7 8 9 10 11 12 13 14 15 16 17 18
000
FTUS41 KCAR 040629 AAB
TAFCAR
TAF AMD
KCAR 040629Z 0406/0506 17012KT 1SM -SN OVC016
     FM040800 18012KT 2SM -SN OVC016
     FM041000 19010KT P6SM OVC020
     FM041500 24011KT P6SM BKN025
     FM041600 25012G22KT P6SM BKN030
     FM042300 24008KT P6SM BKN100=

USA.gov is the U.S. government's official web portal to all federal, state and local government web resources and services.